sensor_id;sensor_type;location;lat;lon;timestamp;pressure;altitude;pressure_sealevel;temperature;humidity
46944;BME280;32678;43.852;25.952;2022-07-29T00:04:00;101159.06;;;29.19;56.81
46944;BME280;32678;43.852;25.952;2022-07-29T00:08:57;101170.38;;;29.22;56.47
46944;BME280;32678;43.852;25.952;2022-07-29T00:13:54;101173.28;;;29.47;55.29
46944;BME280;32678;43.852;25.952;2022-07-29T00:18:51;101181.31;;;29.39;54.90
46944;BME280;32678;43.852;25.952;2022-07-29T00:23:48;101176.25;;;29.36;54.51
46944;BME280;32678;43.852;25.952;2022-07-29T00:28:45;101175.97;;;29.47;53.17
46944;BME280;32678;43.852;25.952;2022-07-29T00:33:42;101179.69;;;28.94;53.47
46944;BME280;32678;43.852;25.952;2022-07-29T00:38:38;101178.78;;;29.11;52.25
46944;BME280;32678;43.852;25.952;2022-07-29T00:43:37;101174.53;;;29.09;51.40
46944;BME280;32678;43.852;25.952;2022-07-29T00:48:34;101173.81;;;28.99;50.95
46944;BME280;32678;43.852;25.952;2022-07-29T00:53:31;101170.16;;;28.82;51.01
46944;BME280;32678;43.852;25.952;2022-07-29T00:58:28;101172.13;;;28.72;50.94
46944;BME280;32678;43.852;25.952;2022-07-29T01:03:25;101167.78;;;28.61;50.36
46944;BME280;32678;43.852;25.952;2022-07-29T01:08:22;101170.16;;;28.82;49.73
46944;BME280;32678;43.852;25.952;2022-07-29T01:13:19;101169.88;;;28.50;49.21
46944;BME280;32678;43.852;25.952;2022-07-29T01:18:18;101165.59;;;28.39;50.23
46944;BME280;32678;43.852;25.952;2022-07-29T01:23:31;101164.13;;;28.09;51.47
46944;BME280;32678;43.852;25.952;2022-07-29T01:28:51;101160.47;;;27.83;51.29
46944;BME280;32678;43.852;25.952;2022-07-29T01:33:54;101153.69;;;27.96;50.20
46944;BME280;32678;43.852;25.952;2022-07-29T01:38:54;101149.75;;;28.18;50.11
46944;BME280;32678;43.852;25.952;2022-07-29T01:43:53;101152.63;;;28.25;49.28
46944;BME280;32678;43.852;25.952;2022-07-29T01:48:52;101163.63;;;27.96;49.87
46944;BME280;32678;43.852;25.952;2022-07-29T01:53:54;101156.09;;;27.99;49.51
46944;BME280;32678;43.852;25.952;2022-07-29T01:58:52;101164.19;;;27.99;49.89
46944;BME280;32678;43.852;25.952;2022-07-29T02:03:50;101155.59;;;28.14;49.37
46944;BME280;32678;43.852;25.952;2022-07-29T02:08:49;101157.44;;;28.13;48.69
46944;BME280;32678;43.852;25.952;2022-07-29T02:13:46;101156.44;;;28.14;48.56
46944;BME280;32678;43.852;25.952;2022-07-29T02:18:44;101155.31;;;28.07;49.16
46944;BME280;32678;43.852;25.952;2022-07-29T02:23:42;101150.03;;;28.15;48.86
46944;BME280;32678;43.852;25.952;2022-07-29T02:28:47;101152.03;;;28.13;49.04
46944;BME280;32678;43.852;25.952;2022-07-29T02:33:46;101147.19;;;28.34;47.94
46944;BME280;32678;43.852;25.952;2022-07-29T02:38:43;101156.28;;;28.16;48.27
46944;BME280;32678;43.852;25.952;2022-07-29T02:43:55;101148.34;;;28.14;48.32
46944;BME280;32678;43.852;25.952;2022-07-29T02:48:55;101160.53;;;28.18;49.34
46944;BME280;32678;43.852;25.952;2022-07-29T02:53:54;101166.00;;;27.81;50.42
46944;BME280;32678;43.852;25.952;2022-07-29T02:58:53;101175.38;;;27.77;51.05
46944;BME280;32678;43.852;25.952;2022-07-29T03:03:51;101174.56;;;27.94;50.27
46944;BME280;32678;43.852;25.952;2022-07-29T03:08:50;101169.41;;;27.83;50.81
46944;BME280;32678;43.852;25.952;2022-07-29T03:13:47;101187.22;;;27.30;51.90
46944;BME280;32678;43.852;25.952;2022-07-29T03:18:44;101193.13;;;27.43;51.27
46944;BME280;32678;43.852;25.952;2022-07-29T03:23:43;101192.38;;;27.60;51.45
46944;BME280;32678;43.852;25.952;2022-07-29T03:28:40;101187.06;;;27.68;51.62
46944;BME280;32678;43.852;25.952;2022-07-29T03:33:37;101172.69;;;27.77;51.58
46944;BME280;32678;43.852;25.952;2022-07-29T03:38:34;101183.41;;;27.87;50.84
46944;BME280;32678;43.852;25.952;2022-07-29T03:43:32;101188.97;;;28.03;49.97
46944;BME280;32678;43.852;25.952;2022-07-29T03:48:31;101191.28;;;27.98;48.83
46944;BME280;32678;43.852;25.952;2022-07-29T03:53:29;101191.25;;;27.80;48.24
46944;BME280;32678;43.852;25.952;2022-07-29T03:58:26;101201.19;;;27.52;48.72
46944;BME280;32678;43.852;25.952;2022-07-29T04:03:22;101205.38;;;27.65;47.90
46944;BME280;32678;43.852;25.952;2022-07-29T04:08:20;101202.84;;;27.63;47.84
46944;BME280;32678;43.852;25.952;2022-07-29T04:13:17;101205.72;;;27.42;48.91
46944;BME280;32678;43.852;25.952;2022-07-29T04:18:13;101207.44;;;27.43;49.27
46944;BME280;32678;43.852;25.952;2022-07-29T04:23:10;101216.00;;;27.66;49.43
46944;BME280;32678;43.852;25.952;2022-07-29T04:28:08;101208.00;;;28.01;48.53
46944;BME280;32678;43.852;25.952;2022-07-29T04:33:05;101213.63;;;27.81;49.25
46944;BME280;32678;43.852;25.952;2022-07-29T04:38:03;101226.41;;;28.06;48.79
46944;BME280;32678;43.852;25.952;2022-07-29T04:43:00;101220.50;;;28.20;48.34
46944;BME280;32678;43.852;25.952;2022-07-29T04:48:02;101220.69;;;28.36;47.49
46944;BME280;32678;43.852;25.952;2022-07-29T04:52:58;101223.00;;;28.14;47.68
46944;BME280;32678;43.852;25.952;2022-07-29T04:57:55;101215.69;;;28.24;47.33
46944;BME280;32678;43.852;25.952;2022-07-29T05:02:52;101231.16;;;28.22;47.51
46944;BME280;32678;43.852;25.952;2022-07-29T05:07:50;101238.72;;;28.18;46.82
46944;BME280;32678;43.852;25.952;2022-07-29T05:12:47;101232.72;;;28.42;46.13
46944;BME280;32678;43.852;25.952;2022-07-29T05:17:44;101234.53;;;28.59;45.52
46944;BME280;32678;43.852;25.952;2022-07-29T05:22:41;101227.38;;;28.68;44.99
46944;BME280;32678;43.852;25.952;2022-07-29T05:27:38;101243.00;;;28.64;44.77
46944;BME280;32678;43.852;25.952;2022-07-29T05:32:35;101241.88;;;28.67;44.57
46944;BME280;32678;43.852;25.952;2022-07-29T05:37:32;101243.66;;;28.58;45.49
46944;BME280;32678;43.852;25.952;2022-07-29T05:42:29;101239.50;;;28.81;45.80
46944;BME280;32678;43.852;25.952;2022-07-29T05:47:27;101236.69;;;28.56;46.20
46944;BME280;32678;43.852;25.952;2022-07-29T05:52:24;101242.03;;;28.48;46.74
46944;BME280;32678;43.852;25.952;2022-07-29T05:57:23;101243.88;;;28.29;45.97
46944;BME280;32678;43.852;25.952;2022-07-29T06:02:20;101239.13;;;28.59;45.96
46944;BME280;32678;43.852;25.952;2022-07-29T06:07:18;101241.44;;;28.54;46.22
46944;BME280;32678;43.852;25.952;2022-07-29T06:12:15;101237.69;;;28.55;46.53
46944;BME280;32678;43.852;25.952;2022-07-29T06:17:15;101235.25;;;28.43;47.95
46944;BME280;32678;43.852;25.952;2022-07-29T06:22:12;101233.38;;;28.26;48.57
46944;BME280;32678;43.852;25.952;2022-07-29T06:27:11;101241.41;;;28.36;48.65
46944;BME280;32678;43.852;25.952;2022-07-29T06:32:08;101228.69;;;28.81;45.71
46944;BME280;32678;43.852;25.952;2022-07-29T06:37:05;101239.78;;;28.61;44.24
46944;BME280;32678;43.852;25.952;2022-07-29T06:42:10;101236.09;;;28.79;43.86
46944;BME280;32678;43.852;25.952;2022-07-29T06:47:08;101248.19;;;29.19;43.51
46944;BME280;32678;43.852;25.952;2022-07-29T06:52:05;101247.38;;;29.44;44.00
46944;BME280;32678;43.852;25.952;2022-07-29T06:57:01;101246.91;;;28.44;48.09
46944;BME280;32678;43.852;25.952;2022-07-29T07:01:58;101244.63;;;28.22;48.92
46944;BME280;32678;43.852;25.952;2022-07-29T07:06:56;101248.97;;;28.68;47.83
46944;BME280;32678;43.852;25.952;2022-07-29T07:11:53;101241.53;;;29.05;44.69
46944;BME280;32678;43.852;25.952;2022-07-29T07:16:49;101233.69;;;29.20;45.54
46944;BME280;32678;43.852;25.952;2022-07-29T07:21:48;101236.16;;;29.31;43.64
46944;BME280;32678;43.852;25.952;2022-07-29T07:26:45;101242.06;;;29.35;43.40
46944;BME280;32678;43.852;25.952;2022-07-29T07:31:42;101226.19;;;29.65;42.30
46944;BME280;32678;43.852;25.952;2022-07-29T07:36:39;101226.34;;;29.98;39.42
46944;BME280;32678;43.852;25.952;2022-07-29T07:41:36;101222.97;;;30.12;39.73
46944;BME280;32678;43.852;25.952;2022-07-29T07:46:33;101225.53;;;30.13;41.08
46944;BME280;32678;43.852;25.952;2022-07-29T07:51:35;101223.88;;;30.29;37.54
46944;BME280;32678;43.852;25.952;2022-07-29T07:56:31;101227.47;;;30.78;36.60
46944;BME280;32678;43.852;25.952;2022-07-29T08:01:31;101227.31;;;30.87;35.65
46944;BME280;32678;43.852;25.952;2022-07-29T08:06:48;101220.34;;;31.09;35.05
46944;BME280;32678;43.852;25.952;2022-07-29T08:11:54;101217.16;;;31.06;33.31
46944;BME280;32678;43.852;25.952;2022-07-29T08:16:50;101216.25;;;31.29;33.14
46944;BME280;32678;43.852;25.952;2022-07-29T08:21:48;101224.84;;;31.33;32.43
46944;BME280;32678;43.852;25.952;2022-07-29T08:26:46;101222.25;;;31.64;32.57
46944;BME280;32678;43.852;25.952;2022-07-29T08:31:43;101222.09;;;31.57;32.12
46944;BME280;32678;43.852;25.952;2022-07-29T08:36:40;101202.59;;;31.54;32.50
46944;BME280;32678;43.852;25.952;2022-07-29T08:41:38;101202.34;;;31.79;32.51
46944;BME280;32678;43.852;25.952;2022-07-29T08:46:36;101206.25;;;31.77;32.75
46944;BME280;32678;43.852;25.952;2022-07-29T08:51:34;101197.50;;;31.98;32.46
46944;BME280;32678;43.852;25.952;2022-07-29T08:56:46;101183.69;;;32.15;32.34
46944;BME280;32678;43.852;25.952;2022-07-29T09:01:44;101179.41;;;32.21;31.81
46944;BME280;32678;43.852;25.952;2022-07-29T09:06:44;101179.16;;;32.31;31.89
46944;BME280;32678;43.852;25.952;2022-07-29T09:11:41;101171.69;;;32.33;31.65
46944;BME280;32678;43.852;25.952;2022-07-29T09:16:46;101167.03;;;32.41;31.57
46944;BME280;32678;43.852;25.952;2022-07-29T09:21:49;101165.03;;;32.58;31.82
46944;BME280;32678;43.852;25.952;2022-07-29T09:26:55;101154.13;;;32.43;30.91
46944;BME280;32678;43.852;25.952;2022-07-29T09:31:53;101172.00;;;32.75;30.63
46944;BME280;32678;43.852;25.952;2022-07-29T09:36:52;101173.78;;;32.68;30.28
46944;BME280;32678;43.852;25.952;2022-07-29T09:41:50;101168.03;;;32.63;30.58
46944;BME280;32678;43.852;25.952;2022-07-29T09:46:58;101164.91;;;32.74;30.23
46944;BME280;32678;43.852;25.952;2022-07-29T09:52:07;101159.84;;;32.86;30.98
46944;BME280;32678;43.852;25.952;2022-07-29T09:57:04;101142.72;;;33.00;30.21
46944;BME280;32678;43.852;25.952;2022-07-29T10:02:02;101141.97;;;33.06;30.00
46944;BME280;32678;43.852;25.952;2022-07-29T10:07:08;101150.81;;;33.23;29.61
46944;BME280;32678;43.852;25.952;2022-07-29T10:12:10;101136.09;;;33.32;30.29
46944;BME280;32678;43.852;25.952;2022-07-29T10:17:18;101140.56;;;33.54;30.54
46944;BME280;32678;43.852;25.952;2022-07-29T10:22:15;101127.41;;;33.72;29.79
46944;BME280;32678;43.852;25.952;2022-07-29T10:27:32;101129.88;;;33.88;30.09
46944;BME280;32678;43.852;25.952;2022-07-29T10:32:36;101124.13;;;33.77;29.11
46944;BME280;32678;43.852;25.952;2022-07-29T10:37:38;101126.41;;;33.94;28.91
46944;BME280;32678;43.852;25.952;2022-07-29T10:42:41;101120.72;;;34.11;27.98
46944;BME280;32678;43.852;25.952;2022-07-29T10:47:41;101110.09;;;33.94;28.26
46944;BME280;32678;43.852;25.952;2022-07-29T10:52:56;101106.63;;;34.07;28.06
46944;BME280;32678;43.852;25.952;2022-07-29T10:58:10;101103.78;;;34.15;28.00
46944;BME280;32678;43.852;25.952;2022-07-29T11:03:08;101104.13;;;34.27;27.98
46944;BME280;32678;43.852;25.952;2022-07-29T11:08:16;101087.88;;;33.91;29.50
46944;BME280;32678;43.852;25.952;2022-07-29T11:23:51;101071.81;;;33.60;30.17
46944;BME280;32678;43.852;25.952;2022-07-29T11:29:16;101059.22;;;33.74;31.82
46944;BME280;32678;43.852;25.952;2022-07-29T11:34:19;101055.31;;;33.26;31.95
46944;BME280;32678;43.852;25.952;2022-07-29T11:39:28;101050.81;;;33.33;31.64
46944;BME280;32678;43.852;25.952;2022-07-29T11:49:45;101052.91;;;33.01;32.19
46944;BME280;32678;43.852;25.952;2022-07-29T11:54:44;101042.50;;;32.90;32.58
46944;BME280;32678;43.852;25.952;2022-07-29T11:59:56;101036.38;;;33.32;31.72
46944;BME280;32678;43.852;25.952;2022-07-29T12:05:06;101036.91;;;32.92;31.83
46944;BME280;32678;43.852;25.952;2022-07-29T12:10:07;101026.47;;;32.95;32.14
46944;BME280;32678;43.852;25.952;2022-07-29T12:15:25;101025.03;;;33.29;30.86
46944;BME280;32678;43.852;25.952;2022-07-29T12:20:42;101016.44;;;33.25;31.46
46944;BME280;32678;43.852;25.952;2022-07-29T12:25:41;101009.41;;;33.31;30.83
46944;BME280;32678;43.852;25.952;2022-07-29T12:30:39;101004.66;;;33.03;31.91
46944;BME280;32678;43.852;25.952;2022-07-29T12:35:41;100999.19;;;33.33;31.23
46944;BME280;32678;43.852;25.952;2022-07-29T12:40:38;100990.50;;;33.23;30.51
46944;BME280;32678;43.852;25.952;2022-07-29T12:45:36;100978.09;;;33.56;31.65
46944;BME280;32678;43.852;25.952;2022-07-29T12:50:35;100972.50;;;33.64;30.79
46944;BME280;32678;43.852;25.952;2022-07-29T12:55:40;100969.53;;;33.59;30.46
46944;BME280;32678;43.852;25.952;2022-07-29T13:00:38;100969.66;;;33.51;30.00
46944;BME280;32678;43.852;25.952;2022-07-29T13:05:38;100969.03;;;33.91;30.42
46944;BME280;32678;43.852;25.952;2022-07-29T13:10:35;100955.63;;;33.97;30.19
46944;BME280;32678;43.852;25.952;2022-07-29T13:15:32;100938.47;;;33.68;30.23
46944;BME280;32678;43.852;25.952;2022-07-29T13:20:30;100952.13;;;34.03;30.09
46944;BME280;32678;43.852;25.952;2022-07-29T13:25:27;100945.91;;;34.09;31.51
46944;BME280;32678;43.852;25.952;2022-07-29T13:30:26;100940.78;;;34.61;30.63
46944;BME280;32678;43.852;25.952;2022-07-29T13:35:23;100946.72;;;34.30;29.49
46944;BME280;32678;43.852;25.952;2022-07-29T13:40:21;100942.56;;;34.34;29.77
46944;BME280;32678;43.852;25.952;2022-07-29T13:45:18;100935.78;;;34.24;29.69
46944;BME280;32678;43.852;25.952;2022-07-29T13:50:14;100922.13;;;33.89;29.73
46944;BME280;32678;43.852;25.952;2022-07-29T13:55:11;100915.09;;;33.74;30.38
46944;BME280;32678;43.852;25.952;2022-07-29T14:00:09;100919.97;;;33.57;30.65
46944;BME280;32678;43.852;25.952;2022-07-29T14:05:06;100910.63;;;33.66;30.66
46944;BME280;32678;43.852;25.952;2022-07-29T14:10:05;100911.66;;;33.65;30.81
46944;BME280;32678;43.852;25.952;2022-07-29T14:15:02;100913.28;;;33.81;29.77
46944;BME280;32678;43.852;25.952;2022-07-29T14:19:59;100917.34;;;33.91;29.69
46944;BME280;32678;43.852;25.952;2022-07-29T14:24:58;100913.59;;;34.27;29.13
46944;BME280;32678;43.852;25.952;2022-07-29T14:30:06;100906.44;;;34.19;29.55
46944;BME280;32678;43.852;25.952;2022-07-29T14:35:05;100909.63;;;34.02;29.89
46944;BME280;32678;43.852;25.952;2022-07-29T14:40:02;100908.06;;;34.14;29.54
46944;BME280;32678;43.852;25.952;2022-07-29T14:44:59;100914.09;;;34.09;29.79
46944;BME280;32678;43.852;25.952;2022-07-29T14:49:56;100915.91;;;33.96;29.88
46944;BME280;32678;43.852;25.952;2022-07-29T14:54:54;100913.63;;;33.99;29.44
46944;BME280;32678;43.852;25.952;2022-07-29T14:59:50;100901.69;;;34.00;30.03
46944;BME280;32678;43.852;25.952;2022-07-29T15:04:47;100905.84;;;34.24;30.72
46944;BME280;32678;43.852;25.952;2022-07-29T15:09:44;100896.25;;;34.00;30.16
46944;BME280;32678;43.852;25.952;2022-07-29T15:14:46;100897.16;;;34.14;29.88
46944;BME280;32678;43.852;25.952;2022-07-29T15:19:43;100902.91;;;33.98;29.96
46944;BME280;32678;43.852;25.952;2022-07-29T15:24:40;100881.97;;;34.26;29.22
46944;BME280;32678;43.852;25.952;2022-07-29T15:29:37;100862.00;;;34.12;28.83
46944;BME280;32678;43.852;25.952;2022-07-29T15:34:35;100870.38;;;33.83;29.43
46944;BME280;32678;43.852;25.952;2022-07-29T15:39:31;100870.88;;;34.21;29.36
46944;BME280;32678;43.852;25.952;2022-07-29T15:44:28;100863.53;;;34.21;29.38
46944;BME280;32678;43.852;25.952;2022-07-29T15:49:25;100867.66;;;34.17;29.95
46944;BME280;32678;43.852;25.952;2022-07-29T15:54:44;100867.44;;;34.12;29.86
46944;BME280;32678;43.852;25.952;2022-07-29T15:59:41;100859.16;;;34.20;29.96
46944;BME280;32678;43.852;25.952;2022-07-29T16:04:38;100869.81;;;34.22;30.20
46944;BME280;32678;43.852;25.952;2022-07-29T16:09:35;100875.25;;;34.22;29.72
46944;BME280;32678;43.852;25.952;2022-07-29T16:14:32;100871.94;;;34.26;29.76
46944;BME280;32678;43.852;25.952;2022-07-29T16:19:29;100875.16;;;34.09;30.62
46944;BME280;32678;43.852;25.952;2022-07-29T16:24:26;100882.31;;;33.82;30.52
46944;BME280;32678;43.852;25.952;2022-07-29T16:29:24;100886.63;;;33.70;31.16
46944;BME280;32678;43.852;25.952;2022-07-29T16:34:22;100889.38;;;34.04;30.43
46944;BME280;32678;43.852;25.952;2022-07-29T16:39:19;100896.50;;;34.12;30.37
46944;BME280;32678;43.852;25.952;2022-07-29T16:44:15;100896.16;;;33.87;31.53
46944;BME280;32678;43.852;25.952;2022-07-29T16:49:14;100900.09;;;34.12;31.25
46944;BME280;32678;43.852;25.952;2022-07-29T16:54:15;100897.13;;;34.07;30.43
46944;BME280;32678;43.852;25.952;2022-07-29T16:59:12;100898.22;;;34.13;30.41
46944;BME280;32678;43.852;25.952;2022-07-29T17:04:09;100908.38;;;33.98;31.13
46944;BME280;32678;43.852;25.952;2022-07-29T17:09:07;100902.56;;;34.07;31.94
46944;BME280;32678;43.852;25.952;2022-07-29T17:14:05;100909.63;;;33.95;32.72
46944;BME280;32678;43.852;25.952;2022-07-29T17:19:04;100899.88;;;33.79;32.14
46944;BME280;32678;43.852;25.952;2022-07-29T17:24:01;100898.34;;;33.70;31.94
46944;BME280;32678;43.852;25.952;2022-07-29T17:28:58;100901.81;;;33.64;31.82
46944;BME280;32678;43.852;25.952;2022-07-29T17:33:55;100902.50;;;33.45;31.57
46944;BME280;32678;43.852;25.952;2022-07-29T17:38:56;100909.78;;;33.44;30.80
46944;BME280;32678;43.852;25.952;2022-07-29T17:43:53;100906.16;;;33.59;30.89
46944;BME280;32678;43.852;25.952;2022-07-29T17:48:50;100900.16;;;33.42;30.48
46944;BME280;32678;43.852;25.952;2022-07-29T17:53:47;100917.50;;;33.41;30.92
46944;BME280;32678;43.852;25.952;2022-07-29T17:58:44;100913.81;;;33.48;30.81
46944;BME280;32678;43.852;25.952;2022-07-29T18:03:42;100920.56;;;33.53;31.18
46944;BME280;32678;43.852;25.952;2022-07-29T18:08:39;100919.31;;;33.55;31.12
46944;BME280;32678;43.852;25.952;2022-07-29T18:13:36;100925.53;;;33.49;31.60
46944;BME280;32678;43.852;25.952;2022-07-29T18:18:34;100924.16;;;33.60;31.69
46944;BME280;32678;43.852;25.952;2022-07-29T18:23:31;100927.66;;;33.53;31.63
46944;BME280;32678;43.852;25.952;2022-07-29T18:28:27;100926.19;;;33.51;32.24
46944;BME280;32678;43.852;25.952;2022-07-29T18:33:25;100929.34;;;33.33;32.58
46944;BME280;32678;43.852;25.952;2022-07-29T18:38:21;100945.44;;;32.99;33.33
46944;BME280;32678;43.852;25.952;2022-07-29T18:43:18;100945.41;;;33.14;33.63
46944;BME280;32678;43.852;25.952;2022-07-29T18:48:15;100947.31;;;33.13;33.74
46944;BME280;32678;43.852;25.952;2022-07-29T18:53:13;100946.63;;;33.26;33.80
46944;BME280;32678;43.852;25.952;2022-07-29T18:58:10;100957.81;;;33.16;33.97
46944;BME280;32678;43.852;25.952;2022-07-29T19:03:07;100961.84;;;33.05;34.28
46944;BME280;32678;43.852;25.952;2022-07-29T19:08:04;100974.78;;;33.03;34.14
46944;BME280;32678;43.852;25.952;2022-07-29T19:13:03;100987.78;;;33.08;33.95
46944;BME280;32678;43.852;25.952;2022-07-29T19:18:02;100999.41;;;33.17;33.77
46944;BME280;32678;43.852;25.952;2022-07-29T19:22:59;100998.97;;;33.34;33.56
46944;BME280;32678;43.852;25.952;2022-07-29T19:27:57;101002.41;;;33.22;33.59
46944;BME280;32678;43.852;25.952;2022-07-29T19:32:55;101001.28;;;33.16;34.00
46944;BME280;32678;43.852;25.952;2022-07-29T19:37:52;101004.16;;;33.15;32.97
46944;BME280;32678;43.852;25.952;2022-07-29T19:42:49;101005.69;;;33.02;32.67
46944;BME280;32678;43.852;25.952;2022-07-29T19:47:46;101002.50;;;32.99;32.63
46944;BME280;32678;43.852;25.952;2022-07-29T19:52:47;100998.28;;;32.96;32.64
46944;BME280;32678;43.852;25.952;2022-07-29T19:57:52;100995.94;;;32.20;32.43
46944;BME280;32678;43.852;25.952;2022-07-29T20:02:50;100993.41;;;31.58;33.02
46944;BME280;32678;43.852;25.952;2022-07-29T20:07:52;100995.91;;;31.06;33.40
46944;BME280;32678;43.852;25.952;2022-07-29T20:12:48;100995.22;;;31.12;33.50
46944;BME280;32678;43.852;25.952;2022-07-29T20:17:49;100998.72;;;31.21;33.55
46944;BME280;32678;43.852;25.952;2022-07-29T20:22:53;101003.88;;;31.08;33.58
46944;BME280;32678;43.852;25.952;2022-07-29T20:27:50;100999.94;;;30.71;34.02
46944;BME280;32678;43.852;25.952;2022-07-29T20:32:48;101000.81;;;30.55;34.34
46944;BME280;32678;43.852;25.952;2022-07-29T20:37:46;101012.03;;;30.12;34.99
46944;BME280;32678;43.852;25.952;2022-07-29T20:42:51;101000.06;;;29.98;35.22
46944;BME280;32678;43.852;25.952;2022-07-29T20:47:48;100991.25;;;29.88;35.47
46944;BME280;32678;43.852;25.952;2022-07-29T20:52:46;100996.88;;;29.95;35.31
46944;BME280;32678;43.852;25.952;2022-07-29T20:57:44;101000.72;;;29.68;35.98
46944;BME280;32678;43.852;25.952;2022-07-29T21:02:42;100998.47;;;29.47;36.13
46944;BME280;32678;43.852;25.952;2022-07-29T21:07:39;101001.38;;;29.46;36.61
46944;BME280;32678;43.852;25.952;2022-07-29T21:12:35;100995.63;;;29.49;36.31
46944;BME280;32678;43.852;25.952;2022-07-29T21:17:32;101010.34;;;29.46;36.27
46944;BME280;32678;43.852;25.952;2022-07-29T21:22:31;101013.03;;;29.62;36.08
46944;BME280;32678;43.852;25.952;2022-07-29T21:27:31;101019.44;;;29.45;36.41
46944;BME280;32678;43.852;25.952;2022-07-29T21:32:54;101032.34;;;30.00;35.53
46944;BME280;32678;43.852;25.952;2022-07-29T21:37:51;101030.78;;;30.46;35.13
46944;BME280;32678;43.852;25.952;2022-07-29T21:42:48;101036.28;;;30.77;34.24
46944;BME280;32678;43.852;25.952;2022-07-29T21:47:52;101033.22;;;30.80;34.22
46944;BME280;32678;43.852;25.952;2022-07-29T21:52:49;101007.59;;;30.98;33.98
46944;BME280;32678;43.852;25.952;2022-07-29T21:57:46;101031.06;;;31.22;33.86
46944;BME280;32678;43.852;25.952;2022-07-29T22:02:43;101041.44;;;31.42;33.59
46944;BME280;32678;43.852;25.952;2022-07-29T22:07:40;101060.03;;;31.14;33.59
46944;BME280;32678;43.852;25.952;2022-07-29T22:12:53;101061.72;;;30.27;36.34
46944;BME280;32678;43.852;25.952;2022-07-29T22:17:50;101054.81;;;30.17;34.75
46944;BME280;32678;43.852;25.952;2022-07-29T22:22:47;101048.56;;;30.16;35.01
46944;BME280;32678;43.852;25.952;2022-07-29T22:27:46;101047.88;;;30.46;34.59
46944;BME280;32678;43.852;25.952;2022-07-29T22:32:44;101042.44;;;30.38;34.63
46944;BME280;32678;43.852;25.952;2022-07-29T22:37:47;101036.34;;;29.71;38.01
46944;BME280;32678;43.852;25.952;2022-07-29T22:42:46;101034.66;;;29.79;38.79
46944;BME280;32678;43.852;25.952;2022-07-29T22:47:42;101037.50;;;29.37;40.15
46944;BME280;32678;43.852;25.952;2022-07-29T22:52:44;101044.22;;;29.33;38.93
46944;BME280;32678;43.852;25.952;2022-07-29T22:57:41;101053.91;;;29.67;37.86
46944;BME280;32678;43.852;25.952;2022-07-29T23:02:38;101042.06;;;29.44;37.57
46944;BME280;32678;43.852;25.952;2022-07-29T23:07:36;101060.47;;;29.41;37.73
46944;BME280;32678;43.852;25.952;2022-07-29T23:12:33;101051.22;;;29.59;37.50
46944;BME280;32678;43.852;25.952;2022-07-29T23:17:30;101057.72;;;29.33;38.11
46944;BME280;32678;43.852;25.952;2022-07-29T23:22:31;101049.56;;;29.16;39.06
46944;BME280;32678;43.852;25.952;2022-07-29T23:27:28;101052.50;;;28.97;39.54
46944;BME280;32678;43.852;25.952;2022-07-29T23:32:25;101049.09;;;28.61;39.91
46944;BME280;32678;43.852;25.952;2022-07-29T23:37:24;101057.13;;;28.53;40.12
46944;BME280;32678;43.852;25.952;2022-07-29T23:42:22;101050.16;;;28.42;39.94
46944;BME280;32678;43.852;25.952;2022-07-29T23:47:19;101056.56;;;28.06;40.73
46944;BME280;32678;43.852;25.952;2022-07-29T23:52:16;101057.22;;;27.65;41.95
46944;BME280;32678;43.852;25.952;2022-07-29T23:57:13;101074.31;;;27.73;41.69
